createdAt,value
2022-08-30T00:00:54.302Z,0.00
2022-08-30T00:01:52.682Z,0.00
2022-08-30T00:02:54.958Z,0.00
2022-08-30T00:03:54.307Z,0.00
2022-08-30T00:04:53.573Z,0.00
2022-08-30T00:05:57.213Z,0.00
2022-08-30T00:06:54.136Z,0.00
2022-08-30T00:07:54.449Z,0.00
2022-08-30T00:08:56.223Z,0.00
2022-08-30T00:09:54.967Z,0.00
2022-08-30T00:10:55.310Z,0.00
2022-08-30T00:11:56.512Z,0.00
2022-08-30T00:12:56.673Z,0.00
2022-08-30T00:13:57.654Z,0.00
2022-08-30T00:14:56.404Z,0.00
2022-08-30T00:15:58.634Z,0.00
2022-08-30T00:16:57.823Z,0.00
2022-08-30T00:17:59.194Z,0.00
2022-08-30T00:19:01.404Z,0.00
2022-08-30T00:19:57.825Z,0.00
2022-08-30T00:20:58.141Z,0.00
2022-08-30T00:22:00.323Z,0.00
2022-08-30T00:23:00.544Z,0.00
2022-08-30T00:24:02.026Z,0.00
2022-08-30T00:24:59.301Z,0.00
2022-08-30T00:25:59.610Z,0.00
2022-08-30T00:27:01.796Z,0.00
2022-08-30T00:28:01.987Z,0.00
2022-08-30T00:29:03.336Z,0.00
2022-08-30T00:30:00.736Z,0.00
2022-08-30T00:31:01.124Z,0.00
2022-08-30T00:32:01.388Z,0.00
2022-08-30T00:33:03.584Z,0.00
2022-08-30T00:34:02.850Z,0.00
2022-08-30T00:35:02.244Z,0.00
2022-08-30T00:36:02.533Z,0.00
2022-08-30T00:37:02.849Z,0.00
2022-08-30T00:38:05.045Z,0.00
2022-08-30T00:39:06.479Z,0.00
2022-08-30T00:40:03.881Z,0.00
2022-08-30T00:41:04.019Z,0.00
2022-08-30T00:42:04.323Z,0.00
2022-08-30T00:43:05.703Z,0.00
2022-08-30T00:44:08.809Z,0.00
2022-08-30T00:45:05.108Z,0.00
2022-08-30T00:46:05.549Z,0.00
2022-08-30T00:47:07.599Z,0.00
2022-08-30T00:48:07.837Z,0.00
2022-08-30T00:49:09.088Z,0.00
2022-08-30T00:50:08.220Z,0.00
2022-08-30T00:51:08.405Z,0.00
2022-08-30T00:52:08.574Z,0.00
2022-08-30T00:53:09.343Z,0.00
2022-08-30T00:54:08.351Z,0.00
2022-08-30T00:55:07.862Z,0.00
2022-08-30T00:56:08.169Z,0.00
2022-08-30T00:57:10.380Z,0.00
2022-08-30T00:58:08.757Z,0.00
2022-08-30T00:59:09.921Z,0.00
2022-08-30T01:00:09.302Z,0.00
2022-08-30T01:01:09.675Z,0.00
2022-08-30T01:02:11.844Z,0.00
2022-08-30T01:03:10.220Z,0.00
2022-08-30T01:04:13.541Z,0.00
2022-08-30T01:05:10.817Z,0.00
2022-08-30T01:06:12.151Z,0.00
2022-08-30T01:07:11.379Z,0.00
2022-08-30T01:08:11.684Z,0.00
2022-08-30T01:09:15.861Z,0.00
2022-08-30T01:10:14.090Z,0.00
2022-08-30T01:11:12.599Z,0.00
2022-08-30T01:12:12.898Z,0.00
2022-08-30T01:13:15.294Z,0.00
2022-08-30T01:14:16.422Z,0.00
2022-08-30T01:15:15.537Z,0.00
2022-08-30T01:16:14.098Z,0.00
2022-08-30T01:17:16.263Z,0.00
2022-08-30T01:22:03.794Z,0.00
2022-08-30T01:23:03.959Z,0.00
2022-08-30T01:24:05.472Z,0.00
2022-08-30T01:25:03.838Z,0.00
2022-08-30T01:26:03.211Z,0.00
2022-08-30T01:27:05.389Z,0.00
2022-08-30T01:28:05.567Z,0.00
2022-08-30T01:29:05.751Z,0.00
2022-08-30T01:30:06.913Z,0.00
2022-08-30T01:31:06.728Z,0.00
2022-08-30T01:32:06.823Z,0.00
2022-08-30T01:33:06.990Z,0.00
2022-08-30T01:34:07.167Z,0.00
2022-08-30T01:35:09.803Z,0.00
2022-08-30T01:36:06.222Z,0.00
2022-08-30T01:37:08.400Z,0.00
2022-08-30T01:38:08.576Z,0.00
2022-08-30T01:39:08.749Z,0.00
2022-08-30T01:40:08.332Z,0.00
2022-08-30T01:41:07.651Z,0.00
2022-08-30T01:42:08.833Z,0.00
2022-08-30T01:43:10.023Z,0.00
2022-08-30T01:44:10.188Z,0.00
2022-08-30T01:45:11.873Z,0.00
2022-08-30T01:46:09.186Z,0.00
2022-08-30T01:47:09.461Z,0.00
2022-08-30T01:48:09.757Z,0.00
2022-08-30T01:49:11.936Z,0.00
2022-08-30T01:50:13.215Z,0.00
2022-08-30T01:51:12.310Z,0.00
2022-08-30T01:52:12.487Z,0.00
2022-08-30T01:53:13.380Z,0.00
2022-08-30T01:54:13.368Z,0.00
2022-08-30T01:55:13.762Z,0.00
2022-08-30T01:56:13.945Z,0.00
2022-08-30T01:57:12.318Z,0.00
2022-08-30T01:58:14.480Z,0.00
2022-08-30T01:59:14.663Z,0.00
2022-08-30T02:00:14.047Z,0.00
2022-08-30T02:01:15.419Z,0.00
2022-08-30T02:02:13.649Z,0.00
2022-08-30T02:03:14.013Z,0.00
2022-08-30T02:04:14.282Z,0.00
2022-08-30T02:05:15.358Z,0.00
2022-08-30T02:06:16.747Z,0.00
2022-08-30T02:07:15.112Z,0.00
2022-08-30T02:08:15.421Z,0.00
2022-08-30T02:09:16.508Z,0.00
2022-08-30T02:10:16.928Z,0.00
2022-08-30T02:11:16.296Z,0.00
2022-08-30T02:12:18.477Z,0.00
2022-08-30T02:13:17.166Z,0.00
2022-08-30T02:14:19.004Z,0.00
2022-08-30T02:15:20.547Z,0.00
2022-08-30T02:16:17.866Z,0.00
2022-08-30T02:17:19.981Z,0.00
2022-08-30T02:18:21.133Z,0.00
2022-08-30T02:19:20.310Z,0.00
2022-08-30T02:20:20.410Z,0.00
2022-08-30T02:21:19.273Z,0.00
2022-08-30T02:22:21.433Z,0.00
2022-08-30T02:23:19.803Z,0.00
2022-08-30T02:24:21.988Z,0.00
2022-08-30T02:25:22.131Z,0.00
2022-08-30T02:26:20.629Z,0.00
2022-08-30T02:27:20.913Z,0.00
2022-08-30T02:28:21.206Z,0.00
2022-08-30T02:29:21.497Z,0.00
2022-08-30T02:30:23.704Z,0.00
2022-08-30T02:31:23.823Z,0.00
2022-08-30T02:32:23.989Z,0.00
2022-08-30T02:33:22.608Z,0.00
2022-08-30T02:34:22.904Z,0.00
2022-08-30T02:35:23.202Z,0.00
2022-08-30T02:36:23.508Z,0.00
2022-08-30T02:37:25.686Z,0.00
2022-08-30T02:38:24.068Z,0.00
2022-08-30T02:39:24.384Z,0.00
2022-08-30T02:40:24.720Z,0.00
2022-08-30T02:41:24.975Z,0.00
2022-08-30T02:42:27.146Z,0.00
2022-08-30T02:43:25.525Z,0.00
2022-08-30T02:44:25.830Z,0.00
2022-08-30T02:45:27.989Z,0.00
2022-08-30T02:46:27.349Z,0.00
2022-08-30T02:47:31.510Z,0.00
2022-08-30T02:48:27.871Z,0.00
2022-08-30T02:49:35.199Z,0.00
2022-08-30T02:50:29.471Z,0.00
2022-08-30T02:51:28.606Z,0.00
2022-08-30T02:52:29.951Z,0.00
2022-08-30T02:53:30.098Z,0.00
2022-08-30T02:54:28.501Z,0.00
2022-08-30T02:55:30.676Z,0.00
2022-08-30T02:56:29.918Z,0.00
2022-08-30T02:57:31.404Z,0.00
2022-08-30T02:58:32.139Z,0.00
2022-08-30T02:59:29.779Z,0.00
2022-08-30T03:00:32.704Z,0.00
2022-08-30T03:01:31.253Z,0.00
2022-08-30T03:02:32.556Z,0.00
2022-08-30T03:03:31.861Z,0.00
2022-08-30T03:04:33.162Z,0.00
2022-08-30T03:05:33.326Z,0.00
2022-08-30T03:06:31.700Z,0.00
2022-08-30T03:07:32.885Z,0.00
2022-08-30T03:08:33.118Z,0.00
2022-08-30T03:09:34.508Z,0.00
2022-08-30T03:10:33.703Z,0.00
2022-08-30T03:11:34.938Z,0.00
2022-08-30T03:12:35.106Z,0.00
2022-08-30T03:13:34.429Z,0.00
2022-08-30T03:14:35.883Z,0.00
2022-08-30T03:15:36.094Z,0.00
2022-08-30T03:16:34.672Z,0.00
2022-08-30T03:17:35.781Z,0.00
2022-08-30T03:18:36.002Z,0.00
2022-08-30T03:19:36.415Z,0.00
2022-08-30T03:20:37.660Z,0.00
2022-08-30T03:21:39.806Z,0.00
2022-08-30T03:22:38.018Z,0.00
2022-08-30T03:23:38.209Z,0.00
2022-08-30T03:24:40.035Z,0.00
2022-08-30T03:25:37.193Z,0.00
2022-08-30T03:26:43.063Z,0.00
2022-08-30T03:27:40.530Z,0.00
2022-08-30T03:28:39.715Z,0.00
2022-08-30T03:29:41.347Z,0.00
2022-08-30T03:30:38.630Z,0.00
2022-08-30T03:31:52.519Z,0.00
2022-08-30T03:32:40.237Z,0.00
2022-08-30T03:33:41.421Z,0.00
2022-08-30T03:34:40.607Z,0.00
2022-08-30T03:35:42.026Z,0.00
2022-08-30T03:36:40.397Z,0.00
2022-08-30T03:37:40.692Z,0.00
2022-08-30T03:38:42.853Z,0.00
2022-08-30T03:39:42.178Z,0.00
2022-08-30T03:40:43.473Z,0.00
2022-08-30T03:41:41.814Z,0.00
2022-08-30T03:42:43.410Z,0.00
2022-08-30T03:43:44.243Z,0.00
2022-08-30T03:44:43.495Z,0.00
2022-08-30T03:45:42.909Z,0.00
2022-08-30T03:46:43.300Z,0.00
2022-08-30T03:47:43.321Z,0.00
2022-08-30T03:48:45.507Z,4.00
2022-08-30T03:49:44.800Z,4.00
2022-08-30T03:50:44.154Z,4.00
2022-08-30T03:51:44.455Z,0.00
2022-08-30T03:52:46.607Z,4.00
2022-08-30T03:53:46.779Z,4.00
2022-08-30T03:54:46.111Z,4.00
2022-08-30T03:55:45.622Z,8.00
2022-08-30T03:56:46.038Z,8.00
2022-08-30T03:57:46.178Z,8.00
2022-08-30T03:58:48.338Z,8.00
2022-08-30T03:59:47.684Z,12.00
2022-08-30T04:00:47.036Z,12.00
2022-08-30T04:01:47.241Z,16.00
2022-08-30T04:02:47.499Z,16.00
2022-08-30T04:03:49.672Z,24.00
2022-08-30T04:04:49.030Z,24.00
2022-08-30T04:05:48.386Z,32.00
2022-08-30T04:06:48.703Z,32.00
2022-08-30T04:07:49.024Z,40.00
2022-08-30T04:08:51.191Z,44.00
2022-08-30T04:09:50.780Z,52.00
2022-08-30T04:10:51.775Z,60.00
2022-08-30T04:11:50.165Z,68.00
2022-08-30T04:12:52.348Z,76.00
2022-08-30T04:13:52.540Z,88.00
2022-08-30T04:14:53.921Z,100.00
2022-08-30T04:15:52.897Z,116.00
2022-08-30T04:16:51.726Z,132.00
2022-08-30T04:17:52.016Z,152.00
2022-08-30T04:18:52.346Z,168.00
2022-08-30T04:19:54.770Z,196.00
2022-08-30T04:20:52.932Z,220.00
2022-08-30T04:21:53.251Z,240.00
2022-08-30T04:22:53.582Z,264.00
2022-08-30T04:23:53.914Z,284.00
2022-08-30T04:24:57.093Z,304.00
2022-08-30T04:25:56.316Z,328.00
2022-08-30T04:26:54.844Z,352.00
2022-08-30T04:27:55.185Z,384.00
2022-08-30T04:28:55.511Z,416.00
2022-08-30T04:29:58.674Z,452.00
2022-08-30T04:30:57.890Z,496.00
2022-08-30T04:31:56.555Z,540.00
2022-08-30T04:32:58.749Z,592.00
2022-08-30T04:33:56.997Z,648.00
2022-08-30T04:34:59.335Z,704.00
2022-08-30T04:35:57.613Z,768.00
2022-08-30T04:37:01.243Z,832.00
2022-08-30T04:37:59.139Z,900.00
2022-08-30T04:38:59.553Z,960.00
2022-08-30T04:40:01.841Z,1028.00
2022-08-30T04:41:01.023Z,1096.00
2022-08-30T04:42:00.291Z,1168.00
2022-08-30T04:43:00.705Z,1236.00
2022-08-30T04:43:59.987Z,1296.00
2022-08-30T04:45:03.336Z,1364.00
2022-08-30T04:46:03.880Z,1432.00
2022-08-30T04:47:00.885Z,1500.00
2022-08-30T04:48:04.527Z,1568.00
2022-08-30T04:49:02.437Z,1632.00
2022-08-30T04:50:03.365Z,1696.00
2022-08-30T04:51:04.078Z,1756.00
2022-08-30T04:52:04.239Z,1808.00
2022-08-30T04:53:03.586Z,1848.00
2022-08-30T04:54:04.006Z,1896.00
2022-08-30T04:55:04.159Z,1956.00
2022-08-30T04:56:04.575Z,2024.00
2022-08-30T04:57:05.827Z,2100.00
2022-08-30T04:58:04.925Z,2196.00
2022-08-30T04:59:04.327Z,2312.00
2022-08-30T05:00:04.680Z,2436.00
2022-08-30T05:01:06.933Z,2588.00
2022-08-30T05:02:07.310Z,2764.00
2022-08-30T05:03:05.566Z,2892.00
2022-08-30T05:04:05.912Z,3032.00
2022-08-30T05:05:10.036Z,3192.00
2022-08-30T05:06:06.535Z,3368.00
2022-08-30T05:07:08.667Z,3572.00
2022-08-30T05:08:08.830Z,3704.00
2022-08-30T05:09:07.365Z,3808.00
2022-08-30T05:10:11.120Z,3892.00
2022-08-30T05:11:09.886Z,3968.00
2022-08-30T05:12:10.052Z,4004.00
2022-08-30T05:13:08.637Z,3980.00
2022-08-30T05:14:08.816Z,4120.00
2022-08-30T05:15:09.155Z,4352.00
2022-08-30T05:16:11.392Z,4412.00
2022-08-30T05:17:11.539Z,4332.00
2022-08-30T05:18:14.102Z,4304.00
2022-08-30T05:19:10.317Z,4520.00
2022-08-30T05:20:10.661Z,4696.00
2022-08-30T05:21:11.104Z,4752.00
2022-08-30T05:22:13.304Z,4928.00
2022-08-30T05:23:13.536Z,4916.00
2022-08-30T05:24:11.830Z,4868.00
2022-08-30T05:25:14.772Z,4856.00
2022-08-30T05:26:14.243Z,4948.00
2022-08-30T05:27:14.357Z,5148.00
2022-08-30T05:28:14.596Z,5380.00
2022-08-30T05:29:14.757Z,5532.00
2022-08-30T05:30:14.949Z,5600.00
2022-08-30T05:31:17.615Z,5740.00
2022-08-30T05:32:15.804Z,6020.00
2022-08-30T05:33:16.033Z,6080.00
2022-08-30T05:34:14.573Z,5952.00
2022-08-30T05:35:16.760Z,5960.00
2022-08-30T05:36:15.088Z,6184.00
2022-08-30T05:37:17.238Z,6376.00
2022-08-30T05:38:15.632Z,6484.00
2022-08-30T05:39:17.729Z,6448.00
2022-08-30T05:40:16.153Z,6184.00
2022-08-30T05:41:18.433Z,5872.00
2022-08-30T05:42:18.506Z,5912.00
2022-08-30T05:43:17.052Z,5968.00
2022-08-30T05:44:17.275Z,6076.00
2022-08-30T05:45:17.502Z,6196.00
2022-08-30T05:46:18.803Z,6632.00
2022-08-30T05:47:19.933Z,6824.00
2022-08-30T05:48:18.472Z,6636.00
2022-08-30T05:49:18.704Z,6636.00
2022-08-30T05:50:18.943Z,6824.00
2022-08-30T05:51:20.038Z,6780.00
2022-08-30T05:52:21.414Z,7316.00
2022-08-30T05:53:19.712Z,7068.00
2022-08-30T05:54:20.801Z,6920.00
2022-08-30T05:55:20.208Z,6952.00
2022-08-30T05:56:21.347Z,7000.00
2022-08-30T05:57:22.694Z,7000.00
2022-08-30T05:58:20.995Z,7044.00
2022-08-30T05:59:21.226Z,7180.00
2022-08-30T06:00:21.451Z,7324.00
2022-08-30T06:01:22.661Z,7500.00
2022-08-30T06:02:24.042Z,7912.00
2022-08-30T06:03:22.405Z,8036.00
2022-08-30T06:04:22.728Z,7900.00
2022-08-30T06:05:22.940Z,8108.00
2022-08-30T06:06:23.973Z,8316.00
2022-08-30T06:07:25.378Z,8536.00
2022-08-30T06:08:23.797Z,8372.00
2022-08-30T06:09:25.999Z,8216.00
2022-08-30T06:10:24.410Z,7996.00
2022-08-30T06:11:25.545Z,7896.00
2022-08-30T06:12:28.399Z,7764.00
2022-08-30T06:13:27.087Z,8068.00
2022-08-30T06:14:27.268Z,9756.00
2022-08-30T06:15:25.819Z,8112.00
2022-08-30T06:16:26.890Z,8012.00
2022-08-30T06:17:28.258Z,8000.00
2022-08-30T06:18:28.934Z,8052.00
2022-08-30T06:19:28.645Z,8092.00
2022-08-30T06:20:27.222Z,8004.00
2022-08-30T06:21:28.423Z,8056.00
2022-08-30T06:22:27.705Z,8068.00
2022-08-30T06:23:29.889Z,7788.00
2022-08-30T06:24:41.384Z,7820.00
2022-08-30T06:25:41.908Z,8156.00
2022-08-30T06:27:28.971Z,8484.00
2022-08-30T06:28:29.205Z,8588.00
2022-08-30T06:29:31.419Z,9044.00
2022-08-30T06:30:31.572Z,9848.00
2022-08-30T06:31:31.590Z,10368.00
2022-08-30T06:32:30.230Z,10460.00
2022-08-30T06:33:30.479Z,10020.00
2022-08-30T06:34:32.631Z,9652.00
2022-08-30T06:35:38.173Z,9332.00
2022-08-30T06:36:33.122Z,9048.00
2022-08-30T06:37:31.556Z,10212.00
2022-08-30T06:38:31.805Z,10208.00
2022-08-30T06:39:34.005Z,11200.00
2022-08-30T06:40:32.421Z,13932.00
2022-08-30T06:41:36.007Z,15520.00
2022-08-30T06:42:32.956Z,13668.00
2022-08-30T06:43:37.116Z,14572.00
2022-08-30T06:44:36.815Z,17792.00
2022-08-30T06:45:34.562Z,18688.00
2022-08-30T06:46:37.094Z,18752.00
2022-08-30T06:47:35.139Z,13748.00
2022-08-30T06:48:35.561Z,11768.00
2022-08-30T06:49:36.339Z,10900.00
2022-08-30T06:50:36.138Z,10116.00
2022-08-30T06:51:39.831Z,9660.00
2022-08-30T06:52:35.758Z,9732.00
2022-08-30T06:53:35.970Z,9900.00
2022-08-30T06:54:38.146Z,9576.00
2022-08-30T06:55:36.456Z,10104.00
2022-08-30T06:56:40.291Z,12408.00
2022-08-30T06:57:36.939Z,10056.00
2022-08-30T06:58:37.169Z,10080.00
2022-08-30T06:59:40.820Z,9916.00
2022-08-30T07:00:37.635Z,9932.00
2022-08-30T07:01:38.986Z,10024.00
2022-08-30T07:02:40.158Z,10356.00
2022-08-30T07:03:38.590Z,10752.00
2022-08-30T07:04:38.834Z,11256.00
2022-08-30T07:05:41.032Z,11388.00
2022-08-30T07:06:42.282Z,12692.00
2022-08-30T07:07:41.421Z,13956.00
2022-08-30T07:08:41.604Z,13020.00
2022-08-30T07:09:40.817Z,13884.00
2022-08-30T07:10:41.442Z,14164.00
2022-08-30T07:11:43.113Z,13940.00
2022-08-30T07:12:41.055Z,14084.00
2022-08-30T07:13:41.301Z,13680.00
2022-08-30T07:14:43.419Z,14076.00
2022-08-30T07:15:42.811Z,14380.00
2022-08-30T07:16:45.178Z,15696.00
2022-08-30T07:17:42.380Z,16700.00
2022-08-30T07:18:44.574Z,16856.00
2022-08-30T07:19:46.745Z,17044.00
2022-08-30T07:20:43.193Z,17172.00
2022-08-30T07:21:44.927Z,17504.00
2022-08-30T07:22:45.655Z,17760.00
2022-08-30T07:23:43.962Z,18080.00
2022-08-30T07:24:45.665Z,18432.00
2022-08-30T07:25:44.489Z,18752.00
2022-08-30T07:26:48.697Z,19040.00
2022-08-30T07:27:45.032Z,19328.00
2022-08-30T07:28:45.277Z,19520.00
2022-08-30T07:29:45.557Z,19648.00
2022-08-30T07:30:45.807Z,19936.00
2022-08-30T07:31:49.098Z,20448.00
2022-08-30T07:32:48.175Z,21216.00
2022-08-30T07:33:48.377Z,21600.00
2022-08-30T07:34:48.540Z,23104.00
2022-08-30T07:35:49.263Z,23456.00
2022-08-30T07:36:51.380Z,22912.00
2022-08-30T07:37:47.721Z,23744.00
2022-08-30T07:38:49.896Z,24928.00
2022-08-30T07:39:50.116Z,25728.00
2022-08-30T07:40:48.631Z,25152.00
2022-08-30T07:41:52.690Z,24736.00
2022-08-30T07:42:49.154Z,24192.00
2022-08-30T07:43:51.330Z,23744.00
2022-08-30T07:44:56.048Z,23616.00
2022-08-30T07:45:52.709Z,23552.00
2022-08-30T07:46:53.330Z,23712.00
2022-08-30T07:47:52.134Z,24160.00
2022-08-30T07:48:52.800Z,24704.00
2022-08-30T07:49:52.990Z,25280.00
2022-08-30T07:50:57.560Z,26272.00
2022-08-30T07:51:55.624Z,26912.00
2022-08-30T07:52:53.550Z,27328.00
2022-08-30T07:53:52.227Z,27936.00
2022-08-30T07:54:54.407Z,28256.00
2022-08-30T07:55:52.710Z,29376.00
2022-08-30T07:56:56.877Z,28576.00
2022-08-30T07:57:53.312Z,27872.00
2022-08-30T07:58:55.392Z,28288.00
2022-08-30T07:59:53.826Z,27936.00
2022-08-30T08:00:54.094Z,27712.00
2022-08-30T08:01:57.883Z,27968.00
2022-08-30T08:02:54.612Z,28288.00
2022-08-30T08:03:54.848Z,28736.00
2022-08-30T08:04:55.093Z,28896.00
2022-08-30T08:05:57.274Z,28832.00
2022-08-30T08:06:58.537Z,28800.00
2022-08-30T08:07:57.682Z,28800.00
2022-08-30T08:08:56.116Z,28640.00
2022-08-30T08:09:56.367Z,28544.00
2022-08-30T08:10:56.611Z,28448.00
2022-08-30T08:12:00.801Z,28480.00
2022-08-30T08:12:59.018Z,28416.00
2022-08-30T08:13:57.456Z,28512.00
2022-08-30T08:14:57.698Z,28608.00
2022-08-30T08:15:59.923Z,28640.00
2022-08-30T08:17:01.159Z,28736.00
2022-08-30T08:18:00.289Z,28864.00
2022-08-30T08:18:58.721Z,28992.00
2022-08-30T08:19:58.988Z,29312.00
2022-08-30T08:21:01.138Z,29728.00
2022-08-30T08:22:20.667Z,29920.00
2022-08-30T08:23:00.729Z,31360.00
2022-08-30T08:24:01.920Z,32896.00
2022-08-30T08:25:00.359Z,32608.00
2022-08-30T08:26:02.542Z,32704.00
2022-08-30T08:27:04.712Z,33632.00
2022-08-30T08:28:02.965Z,35296.00
2022-08-30T08:29:01.417Z,38176.00
2022-08-30T08:30:01.672Z,40960.00
2022-08-30T08:31:03.929Z,43424.00
2022-08-30T08:32:03.047Z,49472.00
2022-08-30T08:33:02.517Z,44320.00
2022-08-30T08:34:03.501Z,41472.00
2022-08-30T08:35:04.939Z,41888.00
2022-08-30T08:36:05.208Z,53440.00
2022-08-30T08:37:04.507Z,52288.00
2022-08-30T08:38:03.803Z,54848.00
2022-08-30T08:39:04.046Z,60128.00
2022-08-30T08:40:06.286Z,54528.00
2022-08-30T08:41:04.554Z,53536.00
2022-08-30T08:42:07.787Z,52160.00
2022-08-30T08:43:05.120Z,56864.00
2022-08-30T08:44:05.365Z,68800.00
2022-08-30T08:45:11.519Z,70208.00
2022-08-30T08:46:09.720Z,66208.00
2022-08-30T08:47:06.981Z,64832.00
2022-08-30T08:48:06.435Z,68128.00
2022-08-30T08:49:06.664Z,71552.00
2022-08-30T08:50:08.849Z,72672.00
2022-08-30T08:51:07.277Z,74336.00
2022-08-30T08:52:08.292Z,73216.00
2022-08-30T08:53:07.895Z,65056.00
2022-08-30T08:54:09.981Z,56320.00
2022-08-30T08:55:08.294Z,57408.00
2022-08-30T08:56:08.543Z,63872.00
2022-08-30T08:57:13.655Z,58848.00
2022-08-30T08:58:10.139Z,53472.00
2022-08-30T08:59:11.299Z,45408.00
2022-08-30T09:00:11.513Z,49536.00
2022-08-30T09:01:10.111Z,42976.00
2022-08-30T09:02:11.353Z,38592.00
2022-08-30T09:03:10.654Z,43168.00
2022-08-30T09:04:11.749Z,34176.00
2022-08-30T09:05:12.236Z,38464.00
2022-08-30T09:06:13.362Z,42464.00
2022-08-30T09:07:15.568Z,35584.00
2022-08-30T09:08:12.917Z,41088.00
2022-08-30T09:09:12.201Z,48512.00
2022-08-30T09:10:12.455Z,55168.00
2022-08-30T09:11:14.632Z,53792.00
2022-08-30T09:12:14.948Z,76672.00
2022-08-30T09:13:13.893Z,71840.00
2022-08-30T09:14:13.927Z,76576.00
2022-08-30T09:15:17.196Z,79200.00
2022-08-30T09:16:32.239Z,76256.00
2022-08-30T09:17:17.395Z,68032.00
2022-08-30T09:18:19.305Z,63008.00
2022-08-30T09:19:16.709Z,67680.00
2022-08-30T09:20:18.529Z,56448.00
2022-08-30T09:21:18.708Z,44576.00
2022-08-30T09:22:16.675Z,42208.00
2022-08-30T09:23:17.432Z,43264.00
2022-08-30T09:24:17.251Z,44320.00
2022-08-30T09:25:19.587Z,46080.00
2022-08-30T09:26:17.828Z,48832.00
2022-08-30T09:27:18.223Z,49216.00
2022-08-30T09:28:18.505Z,48608.00
2022-08-30T09:29:18.565Z,49920.00
2022-08-30T09:30:19.921Z,55200.00
2022-08-30T09:31:18.264Z,57824.00
2022-08-30T09:32:25.290Z,57856.00
2022-08-30T09:33:19.850Z,56960.00
2022-08-30T09:34:19.189Z,53632.00
2022-08-30T09:35:21.351Z,53760.00
2022-08-30T09:36:19.672Z,52160.00
2022-08-30T09:37:20.874Z,51456.00
2022-08-30T09:38:20.176Z,56832.00
2022-08-30T09:39:20.415Z,57120.00
2022-08-30T09:40:22.631Z,54560.00
2022-08-30T09:41:22.808Z,54048.00
2022-08-30T09:42:23.206Z,54816.00
2022-08-30T09:43:23.202Z,60032.00
2022-08-30T09:44:22.757Z,61728.00
2022-08-30T09:45:22.064Z,39520.00
2022-08-30T09:46:24.280Z,67968.00
2022-08-30T09:47:25.547Z,68672.00
2022-08-30T09:48:22.889Z,66784.00
2022-08-30T09:49:25.050Z,29888.00
2022-08-30T09:50:25.236Z,50304.00
2022-08-30T09:51:24.438Z,41568.00
2022-08-30T09:52:24.813Z,62912.00
2022-08-30T09:53:26.091Z,36992.00
2022-08-30T09:54:26.266Z,64192.00
2022-08-30T09:55:26.455Z,67168.00
2022-08-30T09:56:26.909Z,66272.00
2022-08-30T09:57:33.916Z,66848.00
2022-08-30T09:58:30.078Z,65408.00
2022-08-30T09:59:25.832Z,63392.00
2022-08-30T10:00:28.100Z,61280.00
2022-08-30T10:01:28.349Z,61952.00
2022-08-30T10:02:29.482Z,61120.00
2022-08-30T10:03:36.171Z,59168.00
2022-08-30T10:04:31.091Z,57216.00
2022-08-30T10:05:27.596Z,24960.00
2022-08-30T10:06:28.016Z,24064.00
2022-08-30T10:07:29.290Z,62656.00
2022-08-30T10:08:28.561Z,71392.00
2022-08-30T10:09:30.786Z,73792.00
2022-08-30T10:10:30.946Z,66944.00
2022-08-30T10:11:29.390Z,72896.00
2022-08-30T10:12:33.554Z,68960.00
2022-08-30T10:13:29.885Z,71776.00
2022-08-30T10:14:32.085Z,75488.00
2022-08-30T10:15:30.520Z,77472.00
2022-08-30T10:16:32.704Z,76224.00
2022-08-30T10:17:34.909Z,73984.00
2022-08-30T10:18:33.127Z,73568.00
2022-08-30T10:19:33.338Z,76608.00
2022-08-30T10:20:33.523Z,77088.00
2022-08-30T10:21:32.215Z,77152.00
2022-08-30T10:22:33.450Z,78784.00
2022-08-30T10:23:32.777Z,79648.00
2022-08-30T10:24:33.701Z,78624.00
2022-08-30T10:25:35.217Z,79200.00
2022-08-30T10:26:35.403Z,77120.00
2022-08-30T10:27:35.480Z,77888.00
2022-08-30T10:28:34.279Z,75328.00
2022-08-30T10:29:34.529Z,82560.00
2022-08-30T10:30:36.810Z,81632.00
2022-08-30T10:31:35.127Z,87776.00
2022-08-30T10:32:38.373Z,85056.00
2022-08-30T10:33:35.581Z,89408.00
2022-08-30T10:34:35.853Z,86560.00
2022-08-30T10:35:38.875Z,86432.00
2022-08-30T10:36:38.237Z,89280.00
2022-08-30T10:37:37.640Z,86368.00
2022-08-30T10:38:36.954Z,92352.00
2022-08-30T10:39:37.191Z,87840.00
2022-08-30T10:40:37.473Z,91392.00
2022-08-30T10:41:39.635Z,84608.00
2022-08-30T10:42:40.213Z,95072.00
2022-08-30T10:43:38.242Z,78656.00
2022-08-30T10:44:38.453Z,93920.00
2022-08-30T10:45:40.667Z,76640.00
2022-08-30T10:46:40.847Z,90048.00
2022-08-30T10:47:42.309Z,84160.00
2022-08-30T10:48:41.238Z,91808.00
2022-08-30T10:49:40.631Z,93536.00
2022-08-30T10:50:42.117Z,83584.00
2022-08-30T10:51:40.569Z,100064.00
2022-08-30T10:52:43.881Z,27648.00
2022-08-30T10:53:43.038Z,27136.00
2022-08-30T10:54:41.431Z,32992.00
2022-08-30T10:55:47.863Z,43840.00
2022-08-30T10:56:43.013Z,42528.00
2022-08-30T10:57:43.684Z,23552.00
2022-08-30T10:58:44.528Z,23296.00
2022-08-30T10:59:42.980Z,23296.00
2022-08-30T11:00:43.243Z,24256.00
2022-08-30T11:01:46.548Z,26528.00
2022-08-30T11:02:46.763Z,30944.00
2022-08-30T11:03:43.974Z,37056.00
2022-08-30T11:04:46.161Z,76128.00
2022-08-30T11:05:44.482Z,64000.00
2022-08-30T11:06:45.018Z,59872.00
2022-08-30T11:07:46.025Z,98368.00
2022-08-30T11:08:45.362Z,103872.00
2022-08-30T11:09:45.725Z,98880.00
2022-08-30T11:10:49.881Z,105632.00
2022-08-30T11:11:46.233Z,94144.00
2022-08-30T11:12:47.385Z,101792.00
2022-08-30T11:13:48.726Z,45248.00
2022-08-30T11:14:47.175Z,64288.00
2022-08-30T11:15:51.327Z,80224.00
2022-08-30T11:16:50.992Z,93664.00
2022-08-30T11:17:48.907Z,102560.00
2022-08-30T11:18:51.220Z,92096.00
2022-08-30T11:19:50.328Z,107168.00
2022-08-30T11:20:48.792Z,87520.00
2022-08-30T11:21:51.096Z,112192.00
2022-08-30T11:22:50.212Z,84608.00
2022-08-30T11:23:51.571Z,110176.00
2022-08-30T11:24:51.750Z,93664.00
2022-08-30T11:26:51.509Z,98816.00
2022-08-30T11:27:52.282Z,89408.00
2022-08-30T11:28:52.981Z,104896.00
2022-08-30T11:29:53.202Z,88928.00
2022-08-30T11:30:54.580Z,111488.00
2022-08-30T11:31:53.640Z,94304.00
2022-08-30T11:32:52.221Z,33600.00
2022-08-30T11:33:52.456Z,34880.00
2022-08-30T11:34:52.690Z,76928.00
2022-08-30T11:35:55.863Z,116032.00
2022-08-30T11:36:53.987Z,44640.00
2022-08-30T11:37:54.403Z,55808.00
2022-08-30T11:38:55.615Z,65408.00
2022-08-30T11:39:54.054Z,108480.00
2022-08-30T11:40:58.206Z,103136.00
2022-08-30T11:41:54.556Z,94624.00
2022-08-30T11:42:56.743Z,37824.00
2022-08-30T11:43:55.086Z,36512.00
2022-08-30T11:44:55.339Z,111200.00
2022-08-30T11:45:59.086Z,54688.00
2022-08-30T11:46:55.907Z,39392.00
2022-08-30T11:47:59.647Z,30144.00
2022-08-30T11:48:56.388Z,25696.00
2022-08-30T11:49:56.645Z,24480.00
2022-08-30T11:50:59.820Z,23936.00
2022-08-30T11:52:23.784Z,27136.00
2022-08-30T11:53:00.382Z,87424.00
2022-08-30T11:53:59.560Z,76160.00
2022-08-30T11:54:59.760Z,34080.00
2022-08-30T11:55:59.949Z,25856.00
2022-08-30T11:57:00.613Z,23200.00
2022-08-30T11:57:59.807Z,23360.00
2022-08-30T11:59:01.080Z,103200.00
2022-08-30T12:00:01.282Z,97408.00
2022-08-30T12:00:59.907Z,24480.00
2022-08-30T12:02:01.306Z,35456.00
2022-08-30T12:03:02.435Z,31552.00
2022-08-30T12:04:00.755Z,28128.00
2022-08-30T12:05:00.997Z,23552.00
2022-08-30T12:06:01.271Z,21504.00
2022-08-30T12:07:01.499Z,22848.00
2022-08-30T12:08:03.682Z,105888.00
2022-08-30T12:09:02.873Z,63040.00
2022-08-30T12:10:02.371Z,19040.00
2022-08-30T12:11:02.575Z,26720.00
2022-08-30T12:12:04.818Z,103424.00
2022-08-30T12:13:03.153Z,90944.00
2022-08-30T12:14:09.008Z,100544.00
2022-08-30T12:15:03.657Z,93632.00
2022-08-30T12:16:03.988Z,102304.00
2022-08-30T12:17:06.117Z,93600.00
2022-08-30T12:18:04.477Z,97536.00
2022-08-30T12:19:06.782Z,91840.00
2022-08-30T12:20:05.101Z,98240.00
2022-08-30T12:21:09.169Z,94144.00
2022-08-30T12:22:07.397Z,97952.00
2022-08-30T12:23:05.957Z,97120.00
2022-08-30T12:24:08.149Z,96576.00
2022-08-30T12:25:06.509Z,93952.00
2022-08-30T12:26:08.737Z,94240.00
2022-08-30T12:27:08.893Z,98304.00